Time;durP1;ratioP1;P1;durP2;ratioP2;P2;SDS_P1;SDS_P2;PMS_P1;PMS_P2;Temp;Humidity;BMP_temperature;BMP_pressure;BME280_temperature;BME280_humidity;BME280_pressure;Samples;Min_cycle;Max_cycle;Signal;HPM_P1;HPM_P2
2021/10/22 00:01:49;;;;;;;0.00;0.00;;;7.40;99.90;;;;;;5098802;28;20123;-83
2021/10/22 00:04:14;;;;;;;0.43;0.43;;;7.30;99.90;;;;;;5082388;27;20038;-84
2021/10/22 00:06:40;;;;;;;0.00;0.00;;;7.30;99.90;;;;;;5101364;28;20063;-84
2021/10/22 00:09:06;;;;;;;1.27;0.85;;;7.40;99.90;;;;;;5094714;28;20051;-84
2021/10/22 00:11:32;;;;;;;0.00;0.00;;;7.40;99.90;;;;;;5082188;28;20035;-84
2021/10/22 00:13:57;;;;;;;0.00;0.00;;;7.40;99.90;;;;;;5098632;28;20511;-84
2021/10/22 00:16:24;;;;;;;2.00;0.22;;;7.50;99.90;;;;;;5099361;28;20034;-83
2021/10/22 00:18:50;;;;;;;0.05;0.05;;;7.50;99.90;;;;;;5099887;28;20043;-83
2021/10/22 00:21:16;;;;;;;0.10;0.10;;;7.60;99.90;;;;;;5098166;28;20050;-83
2021/10/22 00:23:42;;;;;;;0.00;0.00;;;7.60;99.90;;;;;;5098733;28;20039;-83
2021/10/22 00:26:10;;;;;;;0.28;0.22;;;7.70;99.90;;;;;;5082940;28;20154;-83
2021/10/22 00:28:36;;;;;;;0.00;0.00;;;7.60;99.90;;;;;;5100128;27;20039;-83
2021/10/22 00:31:01;;;;;;;0.00;0.00;;;7.70;99.90;;;;;;5113888;27;20039;-84
2021/10/22 00:33:28;;;;;;;0.00;0.00;;;7.80;99.90;;;;;;5104247;27;20065;-83
2021/10/22 00:35:53;;;;;;;0.10;0.10;;;7.80;99.90;;;;;;5116346;27;20035;-83
2021/10/22 00:38:19;;;;;;;0.00;0.00;;;7.80;99.90;;;;;;5102319;28;20059;-84
2021/10/22 00:40:45;;;;;;;0.00;0.00;;;7.80;99.90;;;;;;5100860;27;20045;-84
2021/10/22 00:43:14;;;;;;;0.47;0.47;;;7.90;99.90;;;;;;5086442;27;20043;-83
2021/10/22 00:45:39;;;;;;;0.00;0.00;;;7.80;99.90;;;;;;5120976;27;20122;-84
2021/10/22 00:48:05;;;;;;;0.00;0.00;;;7.80;99.90;;;;;;5119266;27;20122;-83
2021/10/22 00:50:31;;;;;;;0.00;0.00;;;7.90;99.90;;;;;;5071048;27;20031;-83
2021/10/22 00:52:57;;;;;;;0.05;0.05;;;7.90;99.90;;;;;;5086427;27;20557;-83
2021/10/22 00:55:23;;;;;;;1.15;0.22;;;7.80;99.90;;;;;;5103945;27;20486;-83
2021/10/22 00:57:49;;;;;;;0.00;0.00;;;7.80;99.90;;;;;;5118598;27;20046;-83
2021/10/22 01:00:14;;;;;;;0.00;0.00;;;7.80;99.90;;;;;;5086858;27;20136;-83
2021/10/22 01:02:40;;;;;;;0.00;0.00;;;7.80;99.90;;;;;;5104177;27;20115;-83
2021/10/22 01:05:14;;;;;;;5.47;1.02;;;7.80;99.90;;;;;;5123411;27;20051;-83
2021/10/22 01:07:41;;;;;;;0.00;0.00;;;7.70;99.90;;;;;;5102154;27;20036;-83
2021/10/22 01:10:08;;;;;;;0.70;0.57;;;7.70;99.90;;;;;;5100186;27;20042;-83
2021/10/22 01:12:35;;;;;;;0.00;0.00;;;7.80;99.90;;;;;;5121198;27;20491;-83
2021/10/22 01:15:02;;;;;;;0.00;0.00;;;7.80;99.90;;;;;;5117247;27;20051;-83
2021/10/22 01:17:39;;;;;;;3.67;1.60;;;7.80;99.90;;;;;;5120411;27;20042;-84
2021/10/22 01:20:11;;;;;;;0.15;0.15;;;7.80;99.90;;;;;;5116413;27;20491;-83
2021/10/22 01:22:41;;;;;;;0.30;0.30;;;7.80;99.90;;;;;;5117603;27;20046;-83
2021/10/22 01:25:09;;;;;;;0.00;0.00;;;7.80;99.90;;;;;;5117322;27;20039;-83
2021/10/22 01:27:35;;;;;;;0.00;0.00;;;7.80;99.90;;;;;;5119929;27;20125;-83
2021/10/22 01:30:02;;;;;;;0.15;0.15;;;7.90;99.90;;;;;;5099618;27;20470;-83
2021/10/22 01:32:28;;;;;;;0.00;0.00;;;7.90;99.90;;;;;;5084628;27;20043;-83
2021/10/22 01:34:54;;;;;;;0.00;0.00;;;7.90;99.90;;;;;;5109934;27;20456;-84
2021/10/22 01:37:20;;;;;;;0.05;0.03;;;7.90;99.90;;;;;;5103076;27;20117;-83
2021/10/22 01:39:46;;;;;;;0.00;0.00;;;7.90;99.90;;;;;;5097306;27;20048;-82
2021/10/22 01:42:12;;;;;;;0.08;0.08;;;7.90;99.90;;;;;;5084631;27;20043;-83
2021/10/22 01:44:37;;;;;;;0.30;0.30;;;8.00;99.90;;;;;;5102410;27;20495;-83
2021/10/22 01:47:04;;;;;;;0.00;0.00;;;8.00;99.90;;;;;;5100737;27;20051;-83
2021/10/22 01:49:29;;;;;;;3.70;1.20;;;8.10;99.90;;;;;;5118104;27;20109;-83
2021/10/22 01:51:55;;;;;;;5.68;0.40;;;8.20;99.90;;;;;;5103140;27;20071;-83
2021/10/22 01:54:21;;;;;;;0.00;0.00;;;8.20;99.90;;;;;;5119862;27;20048;-83
2021/10/22 01:56:47;;;;;;;0.00;0.00;;;8.10;99.90;;;;;;5084729;27;21989;-83
2021/10/22 01:59:13;;;;;;;0.00;0.00;;;8.20;99.90;;;;;;5117460;27;20053;-83
2021/10/22 02:01:39;;;;;;;0.00;0.00;;;8.20;99.90;;;;;;5097442;27;20039;-83
2021/10/22 02:04:04;;;;;;;0.00;0.00;;;8.20;99.90;;;;;;5099434;27;20409;-83
2021/10/22 02:06:30;;;;;;;0.00;0.00;;;8.20;99.90;;;;;;5099817;27;20086;-83
2021/10/22 02:08:56;;;;;;;0.00;0.00;;;8.10;99.90;;;;;;5082472;27;20062;-83
2021/10/22 02:11:22;;;;;;;0.85;0.25;;;8.00;99.90;;;;;;5101982;27;20043;-83
2021/10/22 02:13:47;;;;;;;0.00;0.00;;;8.00;99.90;;;;;;5096231;27;20051;-83
2021/10/22 02:16:14;;;;;;;0.00;0.00;;;7.90;99.90;;;;;;5100918;27;20119;-83
2021/10/22 02:18:40;;;;;;;0.00;0.00;;;7.80;99.90;;;;;;5068867;27;20138;-83
2021/10/22 02:21:05;;;;;;;0.00;0.00;;;7.80;99.90;;;;;;5138187;27;20514;-83
2021/10/22 02:23:31;;;;;;;0.00;0.00;;;7.80;99.90;;;;;;5101499;27;20050;-83
2021/10/22 02:25:57;;;;;;;0.00;0.00;;;7.80;99.90;;;;;;5085255;27;21003;-83
2021/10/22 02:28:22;;;;;;;0.10;0.10;;;7.80;99.90;;;;;;5101708;27;20054;-83
2021/10/22 02:30:48;;;;;;;0.00;0.00;;;7.80;99.90;;;;;;5065667;28;20073;-83
2021/10/22 02:33:14;;;;;;;0.00;0.00;;;7.90;99.90;;;;;;5101446;27;20039;-83
2021/10/22 02:35:40;;;;;;;0.68;0.68;;;7.90;99.90;;;;;;5117087;27;20050;-83
2021/10/22 02:38:06;;;;;;;0.00;0.00;;;8.00;99.90;;;;;;5101088;27;20038;-83
2021/10/22 02:40:32;;;;;;;0.00;0.00;;;8.00;99.90;;;;;;5099690;27;20075;-83
2021/10/22 02:42:58;;;;;;;0.00;0.00;;;8.10;99.90;;;;;;5101133;27;20128;-83
2021/10/22 02:45:24;;;;;;;0.38;0.38;;;8.10;99.90;;;;;;5116660;27;20484;-83
2021/10/22 02:47:50;;;;;;;0.10;0.10;;;8.10;99.90;;;;;;5108219;27;20360;-85
2021/10/22 02:50:18;;;;;;;0.00;0.00;;;8.10;99.90;;;;;;5084428;27;20097;-84
2021/10/22 02:52:44;;;;;;;0.68;0.65;;;8.10;99.90;;;;;;5067553;27;20045;-84
2021/10/22 02:55:10;;;;;;;4.03;0.95;;;8.00;99.90;;;;;;5083817;27;20047;-84
2021/10/22 02:57:36;;;;;;;0.00;0.00;;;8.00;99.90;;;;;;5102315;27;20051;-84
2021/10/22 03:00:04;;;;;;;0.00;0.00;;;7.90;99.90;;;;;;5103037;27;20125;-84
2021/10/22 03:02:29;;;;;;;0.00;0.00;;;7.90;99.90;;;;;;5099295;27;20049;-84
2021/10/22 03:04:56;;;;;;;0.40;0.40;;;7.90;99.90;;;;;;5115766;27;20402;-83
2021/10/22 03:07:21;;;;;;;0.00;0.00;;;8.00;99.90;;;;;;5099699;27;20102;-84
2021/10/22 03:09:47;;;;;;;0.00;0.00;;;8.00;99.90;;;;;;5118570;27;20562;-84
2021/10/22 03:12:13;;;;;;;0.00;0.00;;;8.00;99.90;;;;;;5081649;27;20507;-83
2021/10/22 03:14:38;;;;;;;0.00;0.00;;;8.00;99.90;;;;;;5100162;27;20031;-84
2021/10/22 03:17:05;;;;;;;0.10;0.10;;;8.00;99.90;;;;;;5065701;27;20453;-83
2021/10/22 03:19:31;;;;;;;1.23;0.65;;;8.00;99.90;;;;;;5103556;27;20043;-83
2021/10/22 03:21:57;;;;;;;0.10;0.10;;;8.10;99.90;;;;;;5116323;27;20059;-83
2021/10/22 03:24:22;;;;;;;0.00;0.00;;;8.10;99.90;;;;;;5098957;27;20046;-83
2021/10/22 03:26:48;;;;;;;0.30;0.30;;;8.10;99.90;;;;;;5100198;27;20034;-84
2021/10/22 03:29:14;;;;;;;2.60;1.00;;;8.10;99.90;;;;;;5135505;27;20036;-84
2021/10/22 03:31:39;;;;;;;0.32;0.32;;;8.10;99.90;;;;;;5112329;27;20502;-84
2021/10/22 03:34:05;;;;;;;2.40;0.38;;;8.00;99.90;;;;;;5100709;27;20536;-83
2021/10/22 03:36:33;;;;;;;0.00;0.00;;;8.00;99.90;;;;;;5098102;27;20135;-84
2021/10/22 03:38:59;;;;;;;0.52;0.47;;;8.00;99.90;;;;;;5098594;27;20046;-84
2021/10/22 03:41:25;;;;;;;0.52;0.40;;;8.00;99.90;;;;;;5097248;27;20054;-84
2021/10/22 03:43:51;;;;;;;0.40;0.40;;;8.00;99.90;;;;;;5083776;27;20130;-83
2021/10/22 03:46:17;;;;;;;0.10;0.10;;;8.00;99.90;;;;;;5093910;28;20508;-84
2021/10/22 03:48:42;;;;;;;3.25;1.13;;;8.00;99.90;;;;;;5099859;28;20031;-83
2021/10/22 03:51:08;;;;;;;14.40;0.52;;;8.00;99.90;;;;;;5097981;27;20104;-84
2021/10/22 03:53:35;;;;;;;0.17;0.17;;;7.90;99.90;;;;;;5117348;27;20058;-83
2021/10/22 03:56:00;;;;;;;5.47;0.40;;;7.90;99.90;;;;;;5115927;27;20031;-83
2021/10/22 03:58:27;;;;;;;0.00;0.00;;;8.00;99.90;;;;;;5115762;27;20077;-83
2021/10/22 04:00:52;;;;;;;0.00;0.00;;;8.00;99.90;;;;;;5116464;27;20122;-84
2021/10/22 04:03:18;;;;;;;0.00;0.00;;;8.00;99.90;;;;;;5080186;28;20117;-83
2021/10/22 04:05:44;;;;;;;0.32;0.32;;;8.10;99.90;;;;;;5118087;27;20138;-83
2021/10/22 04:08:10;;;;;;;0.00;0.00;;;8.20;99.90;;;;;;5100386;27;20050;-83
2021/10/22 04:10:40;;;;;;;0.00;0.00;;;8.20;99.90;;;;;;5117677;27;20111;-83
2021/10/22 04:13:06;;;;;;;0.10;0.10;;;8.20;99.90;;;;;;5114536;28;20490;-83
2021/10/22 04:15:32;;;;;;;1.65;1.33;;;8.30;99.90;;;;;;5116784;27;20061;-83
2021/10/22 04:17:58;;;;;;;0.00;0.00;;;8.30;99.90;;;;;;5115887;28;20043;-83
2021/10/22 04:20:24;;;;;;;0.00;0.00;;;8.30;99.90;;;;;;5100857;28;20549;-83
2021/10/22 04:22:50;;;;;;;0.00;0.00;;;8.20;99.90;;;;;;5082727;28;20448;-83
2021/10/22 04:25:15;;;;;;;0.00;0.00;;;8.10;99.90;;;;;;5098788;28;20045;-84
2021/10/22 04:27:41;;;;;;;0.00;0.00;;;8.10;99.90;;;;;;5099699;28;20443;-84
2021/10/22 04:30:08;;;;;;;0.10;0.05;;;8.10;99.90;;;;;;5080271;28;20096;-84
2021/10/22 04:32:34;;;;;;;0.00;0.00;;;8.00;99.90;;;;;;5097779;28;20045;-84
2021/10/22 04:35:00;;;;;;;0.00;0.00;;;8.10;99.90;;;;;;5115490;28;20048;-84
2021/10/22 04:37:45;;;;;;;0.20;0.20;;;8.00;99.90;;;;;;5097853;28;20656;-84
2021/10/22 04:40:30;;;;;;;0.00;0.00;;;8.00;99.90;;;;;;5098935;28;20452;-84
2021/10/22 04:42:59;;;;;;;0.00;0.00;;;8.00;99.90;;;;;;5097822;28;20615;-83
2021/10/22 04:45:25;;;;;;;1.08;1.08;;;7.90;99.90;;;;;;5116055;28;20043;-84
2021/10/22 04:47:51;;;;;;;1.40;0.93;;;7.90;99.90;;;;;;5115779;27;20386;-84
2021/10/22 04:50:17;;;;;;;0.10;0.10;;;7.90;99.90;;;;;;5114269;28;20043;-84
2021/10/22 04:52:42;;;;;;;0.00;0.00;;;7.90;99.90;;;;;;5116577;28;20054;-84
2021/10/22 04:55:10;;;;;;;0.00;0.00;;;7.80;99.90;;;;;;5100596;28;20569;-84
2021/10/22 04:57:36;;;;;;;0.10;0.10;;;7.90;99.90;;;;;;5099002;28;20063;-84
2021/10/22 05:00:06;;;;;;;0.20;0.20;;;7.90;99.90;;;;;;5115480;28;20487;-84
2021/10/22 05:02:34;;;;;;;0.00;0.00;;;7.90;99.90;;;;;;5114333;27;20042;-84
2021/10/22 05:04:59;;;;;;;0.20;0.20;;;8.00;99.90;;;;;;5100077;28;20499;-84
2021/10/22 05:07:25;;;;;;;0.52;0.47;;;8.00;99.90;;;;;;5115753;28;20108;-83
2021/10/22 05:09:51;;;;;;;0.00;0.00;;;8.00;99.90;;;;;;5098767;28;20129;-84
2021/10/22 05:12:16;;;;;;;0.00;0.00;;;8.00;99.90;;;;;;5098210;28;20512;-83
2021/10/22 05:14:42;;;;;;;0.00;0.00;;;8.00;99.90;;;;;;5095794;27;20046;-84
2021/10/22 05:17:08;;;;;;;0.00;0.00;;;8.00;99.90;;;;;;5102954;27;20070;-84
2021/10/22 05:19:33;;;;;;;0.47;0.30;;;8.00;99.90;;;;;;5076910;27;20494;-84
2021/10/22 05:22:01;;;;;;;0.13;0.13;;;7.90;99.90;;;;;;5101254;27;20112;-84
2021/10/22 05:24:27;;;;;;;0.00;0.00;;;7.90;99.90;;;;;;5104793;27;20031;-84
2021/10/22 05:26:53;;;;;;;0.00;0.00;;;7.90;99.90;;;;;;5117210;27;20633;-85
2021/10/22 05:29:19;;;;;;;0.00;0.00;;;8.00;99.90;;;;;;5084302;27;20039;-84
2021/10/22 05:31:46;;;;;;;0.10;0.10;;;8.00;99.90;;;;;;5105125;27;20094;-87
2021/10/22 05:34:12;;;;;;;0.15;0.15;;;8.10;99.90;;;;;;5106701;27;20497;-86
2021/10/22 05:36:38;;;;;;;2.08;0.98;;;8.10;99.90;;;;;;5100307;27;20035;-87
2021/10/22 05:39:03;;;;;;;1.00;0.28;;;8.10;99.90;;;;;;5096466;27;20048;-87
2021/10/22 05:41:29;;;;;;;0.52;0.38;;;8.00;99.90;;;;;;5082711;27;20047;-85
2021/10/22 05:43:56;;;;;;;1.20;1.00;;;8.30;99.90;;;;;;5101698;27;20043;-85
2021/10/22 05:46:22;;;;;;;0.00;0.00;;;8.10;99.90;;;;;;5113594;27;20043;-84
2021/10/22 05:48:47;;;;;;;0.00;0.00;;;8.10;99.90;;;;;;5096571;28;20043;-85
2021/10/22 05:51:14;;;;;;;0.17;0.17;;;8.40;99.90;;;;;;5105189;28;20093;-84
2021/10/22 05:53:40;;;;;;;0.00;0.00;;;8.40;99.90;;;;;;5074742;28;20039;-84
2021/10/22 05:56:09;;;;;;;0.00;0.00;;;8.40;99.90;;;;;;5073587;28;20039;-84
2021/10/22 05:58:35;;;;;;;0.00;0.00;;;8.40;99.90;;;;;;5126794;27;20039;-84
2021/10/22 06:01:02;;;;;;;0.47;0.47;;;8.30;99.90;;;;;;5126236;27;20059;-84
2021/10/22 06:03:28;;;;;;;0.00;0.00;;;8.30;99.90;;;;;;5109196;28;20039;-84
2021/10/22 06:05:54;;;;;;;0.00;0.00;;;8.00;99.90;;;;;;5092206;28;20071;-84
2021/10/22 06:08:21;;;;;;;0.13;0.13;;;8.30;99.90;;;;;;5071849;28;20055;-83
2021/10/22 06:10:47;;;;;;;4.85;1.17;;;8.00;99.90;;;;;;5107430;28;20039;-84
2021/10/22 06:13:16;;;;;;;0.52;0.40;;;8.20;99.90;;;;;;5107368;28;20062;-83
2021/10/22 06:15:43;;;;;;;0.00;0.00;;;8.20;99.90;;;;;;5107815;27;20127;-83
2021/10/22 06:18:09;;;;;;;0.57;0.57;;;7.90;99.90;;;;;;5107529;28;20088;-83
2021/10/22 06:25:58;;;;;;;0.60;0.55;;;8.00;99.90;;;;;;5135103;27;20096;-83
2021/10/22 06:28:24;;;;;;;5.95;1.27;;;8.30;99.90;;;;;;5093019;28;20498;-83
2021/10/22 06:30:50;;;;;;;0.00;0.00;;;8.20;99.90;;;;;;5085115;28;20117;-84
2021/10/22 06:33:15;;;;;;;0.03;0.03;;;8.10;99.90;;;;;;5085512;28;20038;-83
2021/10/22 06:35:44;;;;;;;5.07;2.15;;;8.20;99.90;;;;;;5099287;28;20036;-83
2021/10/22 06:38:09;;;;;;;0.00;0.00;;;8.20;99.90;;;;;;5084866;28;20090;-83
2021/10/22 06:40:35;;;;;;;2.45;1.27;;;8.20;99.90;;;;;;5093944;28;20429;-83
2021/10/22 06:43:01;;;;;;;0.05;0.05;;;8.30;99.90;;;;;;5078102;28;20388;-83
2021/10/22 06:45:27;;;;;;;0.00;0.00;;;8.20;99.90;;;;;;5088704;28;20058;-84
2021/10/22 06:47:53;;;;;;;0.20;0.20;;;8.30;99.90;;;;;;5095777;28;20491;-83
2021/10/22 06:50:18;;;;;;;0.00;0.00;;;8.30;99.90;;;;;;5099061;28;20051;-84
2021/10/22 06:52:45;;;;;;;0.00;0.00;;;8.40;99.90;;;;;;5079285;28;20043;-84
2021/10/22 06:55:11;;;;;;;0.10;0.10;;;8.40;99.90;;;;;;5095706;28;20066;-84
2021/10/22 06:57:41;;;;;;;0.50;0.40;;;8.60;99.90;;;;;;5062081;28;20499;-84
2021/10/22 07:00:12;;;;;;;0.00;0.00;;;8.40;99.90;;;;;;5079862;28;20051;-85
2021/10/22 07:02:52;;;;;;;0.00;0.00;;;8.40;99.90;;;;;;5110910;27;20039;-85
2021/10/22 07:08:04;;;;;;;0.38;0.38;;;8.30;99.90;;;;;;5073020;28;20109;-84
2021/10/22 07:10:31;;;;;;;2.08;0.70;;;8.40;99.90;;;;;;5064573;28;20076;-84
2021/10/22 07:12:58;;;;;;;0.00;0.00;;;8.20;99.90;;;;;;5138041;27;20517;-84
2021/10/22 07:15:26;;;;;;;0.25;0.25;;;8.30;99.90;;;;;;5080139;28;20449;-84
2021/10/22 07:17:52;;;;;;;1.13;0.85;;;7.70;99.90;;;;;;5060246;28;20044;-84
2021/10/22 07:20:18;;;;;;;0.00;0.00;;;8.10;99.90;;;;;;5086809;28;20059;-84
2021/10/22 07:22:50;;;;;;;0.00;0.00;;;8.10;99.90;;;;;;5089890;28;20092;-84
2021/10/22 07:25:17;;;;;;;0.00;0.00;;;8.10;99.90;;;;;;5104964;28;20043;-83
2021/10/22 07:27:43;;;;;;;0.00;0.00;;;7.90;99.90;;;;;;5121298;27;20368;-84
2021/10/22 07:30:10;;;;;;;0.80;0.43;;;8.00;99.90;;;;;;5113550;27;20039;-85
2021/10/22 07:32:36;;;;;;;0.00;0.00;;;8.30;99.90;;;;;;5072606;28;20036;-85
2021/10/22 07:35:03;;;;;;;0.17;0.17;;;8.50;99.90;;;;;;5073628;28;20047;-85
2021/10/22 07:37:29;;;;;;;0.00;0.00;;;8.00;99.90;;;;;;5086797;28;20088;-85
2021/10/22 07:39:54;;;;;;;0.00;0.00;;;8.70;99.90;;;;;;5107751;28;20039;-84
2021/10/22 07:42:21;;;;;;;0.00;0.00;;;8.70;99.90;;;;;;5107909;28;20119;-84
2021/10/22 07:44:47;;;;;;;0.15;0.15;;;8.20;99.90;;;;;;5091072;28;20051;-87
2021/10/22 07:47:13;;;;;;;0.30;0.08;;;8.10;99.90;;;;;;5073725;28;20380;-84
2021/10/22 07:49:38;;;;;;;0.10;0.10;;;8.10;99.90;;;;;;5107338;28;20467;-84
2021/10/22 07:52:04;;;;;;;0.08;0.08;;;8.10;99.90;;;;;;5057425;28;20040;-84
2021/10/22 07:54:31;;;;;;;0.38;0.30;;;7.70;99.90;;;;;;5091255;28;20498;-83
2021/10/22 07:56:56;;;;;;;0.03;0.03;;;8.20;99.90;;;;;;5090477;28;20043;-85
2021/10/22 07:59:23;;;;;;;0.00;0.00;;;8.30;99.90;;;;;;5091110;28;20124;-85
2021/10/22 08:01:49;;;;;;;0.00;0.00;;;8.40;99.90;;;;;;5071140;28;20040;-87
2021/10/22 08:04:15;;;;;;;0.00;0.00;;;8.50;99.90;;;;;;5095131;28;20677;-86
2021/10/22 08:06:40;;;;;;;0.00;0.00;;;8.10;99.90;;;;;;5082576;28;20105;-85
2021/10/22 08:09:07;;;;;;;0.00;0.00;;;8.30;99.90;;;;;;5117211;27;20118;-84
2021/10/22 08:11:33;;;;;;;0.00;0.00;;;8.30;99.90;;;;;;5073719;28;20834;-84
2021/10/22 08:13:59;;;;;;;0.00;0.00;;;8.30;99.90;;;;;;5090721;28;20032;-85
2021/10/22 08:16:25;;;;;;;0.00;0.00;;;8.40;99.90;;;;;;5073917;28;20404;-83
2021/10/22 08:18:51;;;;;;;0.55;0.35;;;8.90;99.90;;;;;;5088553;28;20055;-83
2021/10/22 08:21:22;;;;;;;2.75;1.20;;;8.40;99.90;;;;;;5090499;28;20046;-84
2021/10/22 08:23:49;;;;;;;0.70;0.65;;;8.80;99.90;;;;;;5058436;28;20040;-84
2021/10/22 08:26:16;;;;;;;0.00;0.00;;;8.50;99.90;;;;;;5089190;28;20051;-86
2021/10/22 08:28:44;;;;;;;0.45;0.30;;;8.50;99.90;;;;;;5124756;28;20048;-85
2021/10/22 08:31:09;;;;;;;0.00;0.00;;;8.60;99.90;;;;;;5142322;27;20048;-86
2021/10/22 08:33:36;;;;;;;1.55;0.80;;;9.00;99.90;;;;;;5124673;28;20044;-86
2021/10/22 08:36:03;;;;;;;0.00;0.00;;;8.80;99.90;;;;;;5142052;27;20048;-85
2021/10/22 08:38:29;;;;;;;0.00;0.00;;;9.10;99.90;;;;;;5123859;28;20036;-85
2021/10/22 08:40:57;;;;;;;0.15;0.10;;;7.80;99.90;;;;;;5073959;28;20048;-87
2021/10/22 08:43:25;;;;;;;0.20;0.20;;;8.50;99.90;;;;;;5107428;28;20048;-84
2021/10/22 08:45:53;;;;;;;0.00;0.00;;;8.60;99.90;;;;;;5106506;28;20047;-84
2021/10/22 08:48:19;;;;;;;0.00;0.00;;;7.30;99.90;;;;;;5089566;28;20043;-84
2021/10/22 08:50:45;;;;;;;8.65;1.10;;;8.00;99.90;;;;;;5127863;27;20089;-84
2021/10/22 08:53:11;;;;;;;0.00;0.00;;;8.80;99.90;;;;;;5094307;28;20035;-84
2021/10/22 08:55:37;;;;;;;1.05;0.95;;;7.70;99.90;;;;;;5074138;28;20051;-84
2021/10/22 08:58:03;;;;;;;0.00;0.00;;;8.10;99.90;;;;;;5109234;28;20028;-85
2021/10/22 09:00:29;;;;;;;2.30;1.15;;;7.90;99.90;;;;;;5077489;28;20047;-83
2021/10/22 09:03:11;;;;;;;0.00;0.00;;;9.40;99.90;;;;;;5111100;28;20043;-83
2021/10/22 09:05:56;;;;;;;0.45;0.45;;;9.70;99.90;;;;;;5111329;28;20146;-83
2021/10/22 09:08:53;;;;;;;0.05;0.05;;;9.60;99.90;;;;;;5093318;28;20871;-83
2021/10/22 09:11:24;;;;;;;0.15;0.15;;;8.30;99.90;;;;;;5089482;28;20453;-83
2021/10/22 09:14:15;;;;;;;0.30;0.30;;;8.30;99.90;;;;;;5073033;28;20036;-83
2021/10/22 09:16:53;;;;;;;0.30;0.30;;;9.90;99.90;;;;;;5073921;28;20043;-83
2021/10/22 09:19:29;;;;;;;0.00;0.00;;;8.40;99.90;;;;;;5086376;28;20040;-83
2021/10/22 09:21:57;;;;;;;0.00;0.00;;;9.70;99.90;;;;;;5127696;27;20043;-83
2021/10/22 09:24:24;;;;;;;0.35;0.35;;;8.30;99.90;;;;;;5128036;27;20043;-83
2021/10/22 09:26:56;;;;;;;0.00;0.00;;;8.20;99.90;;;;;;5094145;28;20040;-83
2021/10/22 09:29:25;;;;;;;4.35;0.38;;;9.60;99.90;;;;;;5126618;27;20530;-83
2021/10/22 09:31:52;;;;;;;0.10;0.10;;;8.80;99.90;;;;;;5093808;28;20577;-83
2021/10/22 09:34:50;;;;;;;0.00;0.00;;;8.30;99.90;;;;;;5075477;28;20073;-82
2021/10/22 09:37:16;;;;;;;0.35;0.35;;;8.60;99.90;;;;;;5073565;28;20051;-83
2021/10/22 09:39:41;;;;;;;0.10;0.10;;;8.40;99.90;;;;;;5059263;28;20047;-83
2021/10/22 09:42:13;;;;;;;0.00;0.00;;;8.50;99.90;;;;;;5093577;28;20061;-83
2021/10/22 09:44:42;;;;;;;0.00;0.00;;;10.00;99.90;;;;;;5092660;28;20056;-83
2021/10/22 09:47:08;;;;;;;0.17;0.17;;;9.70;99.90;;;;;;5110041;28;20036;-83
2021/10/22 09:49:35;;;;;;;0.32;0.32;;;9.70;99.90;;;;;;5090830;28;20119;-83
2021/10/22 09:52:01;;;;;;;0.15;0.15;;;9.90;99.90;;;;;;5092693;28;20083;-83
2021/10/22 09:54:29;;;;;;;0.70;0.70;;;9.80;99.90;;;;;;5076014;28;20036;-83
2021/10/22 09:56:57;;;;;;;2.60;1.08;;;9.10;99.90;;;;;;5093333;28;20104;-83
2021/10/22 09:59:26;;;;;;;0.10;0.10;;;9.90;99.90;;;;;;5092695;28;20070;-83
2021/10/22 10:01:55;;;;;;;0.77;0.43;;;8.50;99.90;;;;;;5092180;28;20498;-83
2021/10/22 10:04:23;;;;;;;1.02;0.77;;;8.30;99.90;;;;;;5109532;28;20062;-84
2021/10/22 10:06:51;;;;;;;0.00;0.00;;;9.10;99.90;;;;;;5110209;28;20055;-84
2021/10/22 10:09:20;;;;;;;3.17;1.75;;;8.50;99.90;;;;;;5109959;28;20051;-83
2021/10/22 10:11:46;;;;;;;0.00;0.00;;;8.00;99.90;;;;;;5109335;28;20054;-83
2021/10/22 10:14:17;;;;;;;1.45;0.90;;;8.20;99.90;;;;;;5109342;28;20035;-83
2021/10/22 10:16:47;;;;;;;1.67;1.55;;;9.40;99.90;;;;;;5093178;28;20046;-83
2021/10/22 10:19:20;;;;;;;0.00;0.00;;;9.90;99.90;;;;;;5109169;28;20100;-83
2021/10/22 10:22:05;;;;;;;0.10;0.10;;;9.50;99.90;;;;;;5109612;28;20043;-84
2021/10/22 10:24:35;;;;;;;0.00;0.00;;;9.70;99.90;;;;;;5110207;28;20130;-84
2021/10/22 10:27:09;;;;;;;0.00;0.00;;;8.60;99.90;;;;;;5092757;28;20043;-84
2021/10/22 10:29:44;;;;;;;0.30;0.30;;;8.00;99.90;;;;;;5109634;28;20035;-83
2021/10/22 10:32:17;;;;;;;0.00;0.00;;;8.00;99.90;;;;;;5109742;28;20051;-83
2021/10/22 10:34:43;;;;;;;;;;;10.00;99.90;;;;;;5108805;28;20490;-84
2021/10/22 10:37:28;;;;;;;0.90;0.80;;;8.40;99.90;;;;;;5109235;28;19919;-84
2021/10/22 10:40:00;;;;;;;0.00;0.00;;;10.00;99.90;;;;;;5109030;28;20475;-84
2021/10/22 10:42:49;;;;;;;0.00;0.00;;;9.30;99.90;;;;;;5143598;27;20054;-83
2021/10/22 10:45:38;;;;;;;0.00;0.00;;;8.50;99.90;;;;;;5092039;28;20051;-84
2021/10/22 10:48:07;;;;;;;0.00;0.00;;;8.20;99.90;;;;;;5109475;28;20050;-84
2021/10/22 10:50:56;;;;;;;0.10;0.10;;;10.20;99.90;;;;;;5109049;28;20100;-84
2021/10/22 10:53:33;;;;;;;0.25;0.25;;;10.10;99.90;;;;;;5109843;28;20142;-84
2021/10/22 10:56:01;;;;;;;1.17;0.65;;;10.40;99.90;;;;;;5091684;28;20043;-83
2021/10/22 10:58:27;;;;;;;0.00;0.00;;;10.30;99.90;;;;;;5108091;28;20490;-83
2021/10/22 11:00:56;;;;;;;0.00;0.00;;;8.30;99.90;;;;;;5091384;28;20039;-83
2021/10/22 11:03:26;;;;;;;0.00;0.00;;;10.40;99.90;;;;;;5108773;28;20784;-83
2021/10/22 11:05:55;;;;;;;0.22;0.22;;;10.10;99.90;;;;;;5068838;28;20056;-83
2021/10/22 11:08:33;;;;;;;1.33;0.08;;;8.40;99.90;;;;;;5051234;28;20119;-83
2021/10/22 11:11:05;;;;;;;0.00;0.00;;;8.80;99.90;;;;;;5067704;28;20062;-83
2021/10/22 11:13:51;;;;;;;1.77;1.60;;;9.90;99.90;;;;;;5051358;28;20481;-83
2021/10/22 11:18:57;;;;;;;0.00;0.00;;;9.40;99.90;;;;;;5066899;28;20056;-83
2021/10/22 11:21:29;;;;;;;0.00;0.00;;;8.40;99.90;;;;;;5058560;28;20123;-83
2021/10/22 11:23:56;;;;;;;0.00;0.00;;;9.20;99.90;;;;;;5080859;28;20048;-83
2021/10/22 11:26:22;;;;;;;0.00;0.00;;;9.60;99.90;;;;;;5062020;28;20283;-82
2021/10/22 11:29:18;;;;;;;11.50;0.75;;;9.70;99.90;;;;;;5030230;28;20064;-83
2021/10/22 11:31:51;;;;;;;0.00;0.00;;;9.10;99.90;;;;;;5043392;28;20522;-83
2021/10/22 11:34:17;;;;;;;0.00;0.00;;;7.60;99.90;;;;;;5066571;28;20407;-83
2021/10/22 11:36:58;;;;;;;0.25;0.20;;;7.60;99.90;;;;;;5066795;28;20040;-82
2021/10/22 11:39:34;;;;;;;0.00;0.00;;;9.50;99.90;;;;;;5035514;28;20052;-82
2021/10/22 11:42:13;;;;;;;0.88;0.55;;;8.10;99.90;;;;;;5049652;28;20063;-83
2021/10/22 11:44:49;;;;;;;0.00;0.00;;;7.70;99.90;;;;;;5049155;28;20079;-82
2021/10/22 11:47:15;;;;;;;0.00;0.00;;;9.30;99.90;;;;;;5049684;28;20039;-82
2021/10/22 11:49:42;;;;;;;0.00;0.00;;;9.60;99.90;;;;;;5049529;28;20539;-82
2021/10/22 11:52:12;;;;;;;0.00;0.00;;;8.00;99.90;;;;;;5049717;28;20120;-82
2021/10/22 11:54:47;;;;;;;0.75;0.43;;;7.60;99.90;;;;;;5064392;28;20488;-83
2021/10/22 11:57:17;;;;;;;0.63;0.22;;;9.40;99.90;;;;;;5045106;28;20110;-83
2021/10/22 11:59:55;;;;;;;0.00;0.00;;;7.60;99.90;;;;;;5058825;28;20048;-83
2021/10/22 12:02:31;;;;;;;2.70;1.17;;;9.20;99.90;;;;;;5046343;28;20083;-83
2021/10/22 12:05:06;;;;;;;0.00;0.00;;;9.50;99.90;;;;;;5037938;28;20072;-83
2021/10/22 12:07:36;;;;;;;0.00;0.00;;;9.60;99.90;;;;;;5081048;28;20044;-83
2021/10/22 12:10:08;;;;;;;0.43;0.20;;;8.10;99.90;;;;;;5110348;27;20048;-83
2021/10/22 12:12:44;;;;;;;0.00;0.00;;;9.70;99.90;;;;;;5110620;27;20036;-83
2021/10/22 12:15:13;;;;;;;0.00;0.00;;;9.60;99.90;;;;;;5083807;28;20460;-83
2021/10/22 12:17:41;;;;;;;0.00;0.00;;;8.80;99.90;;;;;;5088947;28;20550;-83
2021/10/22 12:20:08;;;;;;;0.08;0.03;;;9.20;99.90;;;;;;5106399;28;20047;-83
2021/10/22 12:22:40;;;;;;;0.10;0.10;;;9.90;99.90;;;;;;5095825;28;20043;-83
2021/10/22 12:25:20;;;;;;;0.00;0.00;;;8.60;99.90;;;;;;5112939;28;20077;-83
2021/10/22 12:27:51;;;;;;;1.35;0.28;;;9.50;99.90;;;;;;5087026;28;20051;-83
2021/10/22 12:30:21;;;;;;;5.05;0.85;;;10.30;99.90;;;;;;5088834;28;20046;-83
2021/10/22 12:32:55;;;;;;;0.00;0.00;;;8.70;99.90;;;;;;5092807;28;20048;-83
2021/10/22 12:35:23;;;;;;;0.75;0.65;;;8.70;99.90;;;;;;5103321;28;20077;-83
2021/10/22 12:38:03;;;;;;;2.60;0.47;;;8.60;99.90;;;;;;5094166;28;20714;-83
2021/10/22 12:40:34;;;;;;;0.00;0.00;;;10.10;99.90;;;;;;5085890;28;20498;-83
2021/10/22 12:43:09;;;;;;;2.80;0.30;;;10.20;99.90;;;;;;5085873;28;20158;-83
2021/10/22 12:46:05;;;;;;;0.80;0.43;;;9.60;99.90;;;;;;5092249;28;20694;-83
2021/10/22 12:48:32;;;;;;;0.10;0.10;;;8.70;99.90;;;;;;5087297;28;20527;-83
2021/10/22 12:51:06;;;;;;;0.80;0.80;;;9.40;99.90;;;;;;5095691;28;20036;-82
2021/10/22 12:53:39;;;;;;;0.38;0.38;;;9.70;99.90;;;;;;5077945;28;20043;-83
2021/10/22 12:56:11;;;;;;;0.00;0.00;;;8.30;99.90;;;;;;5112708;28;20039;-82
2021/10/22 12:58:54;;;;;;;0.00;0.00;;;9.40;99.90;;;;;;5088255;28;20048;-83
2021/10/22 13:01:20;;;;;;;0.00;0.00;;;9.40;99.90;;;;;;5082597;28;20529;-82
2021/10/22 13:03:48;;;;;;;0.00;0.00;;;8.50;99.90;;;;;;5085961;28;20040;-83
2021/10/22 13:22:30;;;;;;;0.00;0.00;;;9.50;99.90;;;;;;5122735;27;20051;-83
2021/10/22 13:24:56;;;;;;;0.00;0.00;;;9.30;99.90;;;;;;5070005;28;20055;-83
2021/10/22 13:27:24;;;;;;;0.30;0.30;;;9.30;99.90;;;;;;5084965;28;20051;-83
2021/10/22 13:29:54;;;;;;;0.38;0.38;;;9.20;99.90;;;;;;5067500;28;20093;-82
2021/10/22 13:32:20;;;;;;;4.72;0.98;;;9.20;99.90;;;;;;5109354;28;20031;-93